createdAt,value
2023-10-13T00:02:37.354Z,100231.50
2023-10-13T00:05:39.033Z,100232.38
2023-10-13T00:08:40.901Z,100242.31
2023-10-13T00:11:43.074Z,100241.41
2023-10-13T00:14:46.097Z,100245.97
2023-10-13T00:17:47.813Z,100249.47
2023-10-13T00:20:49.586Z,100245.06
2023-10-13T00:23:51.255Z,100266.47
2023-10-13T00:26:52.913Z,100255.69
2023-10-13T00:29:56.319Z,100252.13
2023-10-13T00:32:58.536Z,100270.94
2023-10-13T00:36:00.244Z,100256.66
2023-10-13T00:39:01.905Z,100259.25
2023-10-13T00:42:03.739Z,100256.66
2023-10-13T00:45:08.282Z,100254.00
2023-10-13T00:48:10.332Z,100254.25
2023-10-13T00:51:13.742Z,100257.03
2023-10-13T00:54:16.381Z,100249.13
2023-10-13T00:57:18.170Z,100253.50
2023-10-13T01:00:21.365Z,100249.19
2023-10-13T01:03:24.038Z,100252.69
2023-10-13T01:06:27.736Z,100240.34
2023-10-13T01:09:29.398Z,100242.22
2023-10-13T01:12:31.153Z,100239.44
2023-10-13T01:15:34.283Z,100240.34
2023-10-13T01:18:35.998Z,100239.47
2023-10-13T01:21:37.668Z,100240.38
2023-10-13T01:24:40.996Z,100243.03
2023-10-13T01:27:42.640Z,100243.03
2023-10-13T01:30:44.570Z,100235.97
2023-10-13T01:33:46.352Z,100239.47
2023-10-13T01:36:49.598Z,100233.22
2023-10-13T01:39:52.651Z,100216.31
2023-10-13T01:42:54.316Z,100226.00
2023-10-13T01:45:56.030Z,100228.63
2023-10-13T01:48:57.769Z,100229.56
2023-10-13T01:51:59.501Z,100234.88
2023-10-13T01:55:02.522Z,100233.97
2023-10-13T01:58:05.531Z,100244.75
2023-10-13T02:01:08.992Z,100239.41
2023-10-13T02:04:10.811Z,100244.75
2023-10-13T02:07:12.551Z,100245.63
2023-10-13T02:10:15.726Z,100250.97
2023-10-13T02:13:18.792Z,100246.53
2023-10-13T02:16:20.566Z,100250.00
2023-10-13T02:19:22.382Z,100247.25
2023-10-13T02:22:24.231Z,100253.44
2023-10-13T02:25:27.294Z,100249.03
2023-10-13T02:28:29.119Z,100245.47
2023-10-13T02:31:30.930Z,100246.44
2023-10-13T02:34:32.672Z,100248.22
2023-10-13T02:37:34.498Z,100246.44
2023-10-13T02:40:37.972Z,100241.91
2023-10-13T02:43:39.684Z,100236.63
2023-10-13T02:46:41.738Z,100241.00
2023-10-13T02:49:43.573Z,100239.16
2023-10-13T02:52:45.333Z,100228.38
2023-10-13T02:55:53.308Z,100228.38
2023-10-13T02:58:54.990Z,100235.50
2023-10-13T03:01:56.688Z,100245.31
2023-10-13T03:04:59.101Z,100246.28
2023-10-13T03:08:00.758Z,100245.38
2023-10-13T03:11:03.829Z,100248.91
2023-10-13T03:14:05.584Z,100259.56
2023-10-13T03:17:07.511Z,100258.63
2023-10-13T03:20:10.289Z,100269.38
2023-10-13T03:23:11.992Z,100280.06
2023-10-13T03:26:15.059Z,100291.66
2023-10-13T03:29:16.720Z,100293.38
2023-10-13T03:32:18.401Z,100283.41
2023-10-13T03:35:20.506Z,100280.66
2023-10-13T03:38:22.235Z,100273.53
2023-10-13T03:41:25.350Z,100273.44
2023-10-13T03:44:27.004Z,100263.59
2023-10-13T03:47:28.731Z,100263.53
2023-10-13T03:50:30.494Z,100265.19
2023-10-13T03:53:32.762Z,100277.69
2023-10-13T03:56:36.722Z,100272.41
2023-10-13T03:59:39.062Z,100267.00
2023-10-13T04:02:40.859Z,100263.41
2023-10-13T04:05:43.049Z,100268.69
2023-10-13T04:08:44.833Z,100262.44
2023-10-13T04:11:47.903Z,100255.50
2023-10-13T04:14:49.601Z,100251.25
2023-10-13T04:17:51.733Z,100269.81
2023-10-13T04:20:54.309Z,100254.59
2023-10-13T04:23:56.006Z,100250.03
2023-10-13T04:26:59.176Z,100245.50
2023-10-13T04:30:00.839Z,100234.78
2023-10-13T04:33:02.732Z,100230.50
2023-10-13T04:36:05.990Z,100204.75
2023-10-13T04:39:07.667Z,100227.06
2023-10-13T04:42:10.770Z,100223.31
2023-10-13T04:45:12.437Z,100203.91
2023-10-13T04:48:14.195Z,100221.72
2023-10-13T04:51:15.980Z,100224.25
2023-10-13T04:54:17.712Z,100200.28
2023-10-13T04:57:21.932Z,100213.56
2023-10-13T05:00:23.670Z,100221.50
2023-10-13T05:03:25.369Z,100215.91
2023-10-13T05:06:27.059Z,100223.00
2023-10-13T05:09:28.759Z,100241.59
2023-10-13T05:12:31.790Z,100255.78
2023-10-13T05:15:33.488Z,100265.81
2023-10-13T05:18:35.641Z,100264.69
2023-10-13T05:21:37.283Z,100258.38
2023-10-13T05:24:38.947Z,100269.00
2023-10-13T05:27:42.037Z,100247.47
2023-10-13T05:30:43.719Z,100254.53
2023-10-13T05:33:45.372Z,100259.00
2023-10-13T05:36:47.063Z,100269.69
2023-10-13T05:39:48.725Z,100266.16
2023-10-13T05:42:51.733Z,100276.91
2023-10-13T05:45:53.486Z,100292.06
2023-10-13T05:48:55.821Z,100308.91
2023-10-13T05:51:57.493Z,100316.00
2023-10-13T05:54:59.153Z,100307.97
2023-10-13T05:58:02.245Z,100286.50
2023-10-13T06:01:03.904Z,100281.03
2023-10-13T06:04:05.909Z,100301.44
2023-10-13T06:07:07.594Z,100310.25
2023-10-13T06:10:11.076Z,100309.19
2023-10-13T06:13:14.474Z,100312.00
2023-10-13T06:16:17.759Z,100318.00
2023-10-13T06:19:19.692Z,100325.06
2023-10-13T06:22:21.580Z,100293.78
2023-10-13T06:25:23.442Z,100308.16
2023-10-13T06:28:26.653Z,100326.91
2023-10-13T06:31:28.488Z,100324.31
2023-10-13T06:34:30.363Z,100317.88
2023-10-13T06:37:32.202Z,100335.50
2023-10-13T06:40:33.983Z,100346.38
2023-10-13T06:43:38.114Z,100337.16
2023-10-13T06:46:39.893Z,100344.16
2023-10-13T06:49:41.693Z,100345.94
2023-10-13T06:52:43.613Z,100344.94
2023-10-13T06:55:45.425Z,100358.09
2023-10-13T06:58:48.790Z,100373.34
2023-10-13T07:01:50.634Z,100391.16
2023-10-13T07:04:52.517Z,100391.94
2023-10-13T07:07:54.297Z,100372.38
2023-10-13T07:10:57.128Z,100395.53
2023-10-13T07:14:00.751Z,100391.03
2023-10-13T07:17:05.413Z,100374.91
2023-10-13T07:20:08.509Z,100383.09
2023-10-13T07:23:10.315Z,100396.44
2023-10-13T07:26:12.008Z,100397.41
2023-10-13T07:29:15.104Z,100395.44
2023-10-13T07:32:16.840Z,100408.84
2023-10-13T07:35:20.806Z,100408.06
2023-10-13T07:38:22.479Z,100412.50
2023-10-13T07:41:24.147Z,100422.31
2023-10-13T07:44:27.184Z,100434.00
2023-10-13T07:47:28.984Z,100426.63
2023-10-13T07:50:30.952Z,100418.44
2023-10-13T07:53:33.233Z,100403.97
2023-10-13T07:56:35.073Z,100398.44
2023-10-13T07:59:38.254Z,100407.25
2023-10-13T08:02:40.030Z,100407.97
2023-10-13T08:05:41.770Z,100400.81
2023-10-13T08:08:44.032Z,100388.97
2023-10-13T08:11:45.727Z,100378.88
2023-10-13T08:14:48.742Z,100376.84
2023-10-13T08:17:50.546Z,100396.13
2023-10-13T08:20:52.495Z,100399.41
2023-10-13T08:23:54.260Z,100405.84
2023-10-13T08:26:56.942Z,100403.75
2023-10-13T08:30:00.055Z,100407.22
2023-10-13T08:33:01.748Z,100402.63
2023-10-13T08:36:04.074Z,100404.00
2023-10-13T08:39:05.796Z,100404.19
2023-10-13T08:42:07.760Z,100396.69
2023-10-13T08:45:12.360Z,100388.63
2023-10-13T08:48:14.748Z,100396.25
2023-10-13T08:51:16.812Z,100396.00
2023-10-13T08:54:19.088Z,100396.56
2023-10-13T08:57:21.241Z,100390.84
2023-10-13T09:00:24.688Z,100385.41
2023-10-13T09:03:26.373Z,100393.09
2023-10-13T09:06:28.086Z,100397.38
2023-10-13T09:09:30.744Z,100400.41
2023-10-13T09:12:32.446Z,100400.19
2023-10-13T09:15:35.492Z,100408.09
2023-10-13T09:18:38.394Z,100415.69
2023-10-13T09:21:40.516Z,100411.69
2023-10-13T09:24:42.169Z,100415.22
2023-10-13T09:27:43.856Z,100416.06
2023-10-13T09:30:48.321Z,100412.13
2023-10-13T09:33:50.045Z,100419.44
2023-10-13T09:36:51.885Z,100423.72
2023-10-13T09:39:53.769Z,100409.06
2023-10-13T09:42:56.289Z,100401.69
2023-10-13T09:45:59.905Z,100406.09
2023-10-13T09:49:13.075Z,100411.78
2023-10-13T09:52:16.943Z,100412.09
2023-10-13T09:55:27.514Z,100409.00
2023-10-13T09:58:31.406Z,100405.25
2023-10-13T10:01:38.240Z,100394.69
2023-10-13T10:04:40.088Z,100388.66
2023-10-13T10:07:41.979Z,100390.16
2023-10-13T10:10:56.826Z,100387.81
2023-10-13T10:14:08.922Z,100386.28
2023-10-13T10:17:12.099Z,100381.69
2023-10-13T10:20:14.211Z,100375.22
2023-10-13T10:23:25.827Z,100363.41
2023-10-13T10:26:27.493Z,100363.16
2023-10-13T10:29:29.210Z,100361.50
2023-10-13T10:32:36.799Z,100352.69
2023-10-13T10:35:39.348Z,100345.44
2023-10-13T10:38:53.173Z,100334.59
2023-10-13T10:41:54.932Z,100335.38
2023-10-13T10:44:56.777Z,100331.75
2023-10-13T10:47:59.925Z,100333.59
2023-10-13T10:51:02.019Z,100326.31
2023-10-13T10:54:04.033Z,100320.31
2023-10-13T10:57:07.048Z,100324.69
2023-10-13T11:00:19.425Z,100316.50
2023-10-13T11:03:22.576Z,100320.66
2023-10-13T11:06:24.928Z,100322.84
2023-10-13T11:09:27.691Z,100325.31
2023-10-13T11:12:29.382Z,100320.56
2023-10-13T11:15:42.505Z,100310.28
2023-10-13T11:18:45.555Z,100325.19
2023-10-13T11:21:47.680Z,100313.97
2023-10-13T11:24:49.743Z,100310.06
2023-10-13T11:27:51.416Z,100306.00
2023-10-13T11:30:53.115Z,100296.66
2023-10-13T11:33:56.177Z,100300.00
2023-10-13T11:36:57.846Z,100291.88
2023-10-13T11:39:59.573Z,100293.88
2023-10-13T11:43:01.249Z,100291.56
2023-10-13T11:46:02.945Z,100284.59
2023-10-13T11:49:07.041Z,100278.75
2023-10-13T11:52:08.748Z,100283.66
2023-10-13T11:55:10.416Z,100277.72
2023-10-13T11:58:12.381Z,100287.09
2023-10-13T12:01:15.592Z,100289.16
2023-10-13T12:04:18.846Z,100288.44
2023-10-13T12:07:21.549Z,100281.81
2023-10-13T12:10:23.578Z,100280.31
2023-10-13T12:13:25.374Z,100272.41
2023-10-13T12:16:27.197Z,100282.81
2023-10-13T12:19:30.552Z,100272.22
2023-10-13T12:22:32.499Z,100275.63
2023-10-13T12:25:35.616Z,100277.81
2023-10-13T12:28:37.161Z,100268.41
2023-10-13T12:31:38.925Z,100263.88
2023-10-13T12:34:42.762Z,100262.91
2023-10-13T12:37:44.643Z,100262.91
2023-10-13T12:40:49.310Z,100248.84
2023-10-13T12:43:51.166Z,100258.44
2023-10-13T12:46:53.188Z,100251.38
2023-10-13T12:49:56.774Z,100250.41
2023-10-13T12:52:58.524Z,100255.56
2023-10-13T12:56:00.300Z,100246.69
2023-10-13T12:59:02.047Z,100241.13
2023-10-13T13:02:03.894Z,100249.78
2023-10-13T13:05:07.710Z,100238.66
2023-10-13T13:08:09.454Z,100236.13
2023-10-13T13:11:11.295Z,100230.94
2023-10-13T13:14:12.998Z,100223.84
2023-10-13T13:17:15.050Z,100221.47
2023-10-13T13:20:18.231Z,100216.81
2023-10-13T13:23:19.726Z,100214.63
2023-10-13T13:26:21.419Z,100212.66
2023-10-13T13:29:23.343Z,100215.59
2023-10-13T13:32:25.381Z,100214.53
2023-10-13T13:35:28.994Z,100215.25
2023-10-13T13:38:30.455Z,100206.97
2023-10-13T13:41:31.980Z,100210.97
2023-10-13T13:44:33.770Z,100203.91
2023-10-13T13:47:35.624Z,100208.34
2023-10-13T13:50:38.906Z,100208.06
2023-10-13T13:53:40.606Z,100209.69
2023-10-13T13:56:42.298Z,100203.22
2023-10-13T13:59:43.999Z,100200.38
2023-10-13T14:02:45.833Z,100203.59
2023-10-13T14:05:49.049Z,100194.56
2023-10-13T14:08:50.848Z,100191.41
2023-10-13T14:11:52.522Z,100190.72
2023-10-13T14:14:54.247Z,100196.81
2023-10-13T14:17:55.898Z,100188.66
2023-10-13T14:20:59.083Z,100186.63
2023-10-13T14:24:00.587Z,100182.13
2023-10-13T14:27:04.032Z,100181.38
2023-10-13T14:30:06.973Z,100178.47
2023-10-13T14:33:08.639Z,100179.56
2023-10-13T14:36:13.388Z,100169.03
2023-10-13T14:39:16.201Z,100173.19
2023-10-13T14:42:17.867Z,100170.88
2023-10-13T14:45:19.529Z,100164.28
2023-10-13T14:48:21.255Z,100172.94
2023-10-13T14:51:24.301Z,100168.81
2023-10-13T14:54:25.794Z,100166.78
2023-10-13T14:57:27.502Z,100160.19
2023-10-13T15:00:29.212Z,100156.25
2023-10-13T15:03:30.980Z,100142.34
2023-10-13T15:06:34.099Z,100143.69
2023-10-13T15:09:35.829Z,100143.38
2023-10-13T15:12:37.505Z,100148.31
2023-10-13T15:15:39.169Z,100145.47
2023-10-13T15:18:40.878Z,100145.31
2023-10-13T15:21:43.936Z,100142.78
2023-10-13T15:24:45.442Z,100143.28
2023-10-13T15:27:46.928Z,100146.56
2023-10-13T15:30:48.660Z,100155.38
2023-10-13T15:33:52.273Z,100154.50
2023-10-13T15:36:56.390Z,100159.66
2023-10-13T15:39:58.142Z,100163.16
2023-10-13T15:42:59.899Z,100153.63
2023-10-13T15:46:17.253Z,100163.88
2023-10-13T15:49:23.397Z,100159.94
2023-10-13T15:52:26.513Z,100172.94
2023-10-13T15:55:28.175Z,100170.94
2023-10-13T15:58:29.865Z,100173.44
2023-10-13T16:01:31.677Z,100175.00
2023-10-13T16:04:33.509Z,100180.19
2023-10-13T16:07:36.578Z,100181.09
2023-10-13T16:10:39.389Z,100169.38
2023-10-13T16:13:41.405Z,100171.91
2023-10-13T16:16:44.176Z,100169.03
2023-10-13T16:19:45.879Z,100164.94
2023-10-13T16:22:49.370Z,100167.59
2023-10-13T16:25:51.039Z,100171.13
2023-10-13T16:28:53.034Z,100177.13
2023-10-13T16:31:54.753Z,100172.31
2023-10-13T16:34:57.987Z,100171.13
2023-10-13T16:38:03.007Z,100174.25
2023-10-13T16:41:05.208Z,100178.34
2023-10-13T16:44:06.991Z,100172.56
2023-10-13T16:47:08.639Z,100170.25
2023-10-13T16:50:11.194Z,100172.28
2023-10-13T16:53:14.310Z,100172.41
2023-10-13T16:56:16.334Z,100172.69
2023-10-13T16:59:18.016Z,100168.44
2023-10-13T17:02:19.709Z,100170.44
2023-10-13T17:05:21.459Z,100168.69
2023-10-13T17:08:24.590Z,100172.22
2023-10-13T17:11:26.310Z,100171.31
2023-10-13T17:14:27.981Z,100171.31
2023-10-13T17:17:29.728Z,100178.66
2023-10-13T17:20:34.872Z,100175.28
2023-10-13T17:23:37.968Z,100167.91
2023-10-13T17:26:39.698Z,100170.03
2023-10-13T17:29:41.438Z,100166.78
2023-10-13T17:32:43.203Z,100172.69
2023-10-13T17:35:45.101Z,100167.59
2023-10-13T17:38:48.405Z,100170.28
2023-10-13T17:41:49.909Z,100163.22
2023-10-13T17:44:51.763Z,100166.09
2023-10-13T17:47:53.533Z,100168.91
2023-10-13T17:50:55.300Z,100167.72
2023-10-13T17:53:58.404Z,100173.25
2023-10-13T17:57:00.748Z,100166.38
2023-10-13T18:00:02.797Z,100163.97
2023-10-13T18:03:05.065Z,100167.06
2023-10-13T18:06:07.345Z,100167.16
2023-10-13T18:09:11.225Z,100164.81
2023-10-13T18:12:13.406Z,100150.75
2023-10-13T18:15:15.589Z,100159.09
2023-10-13T18:18:18.081Z,100158.47
2023-10-13T18:21:19.772Z,100164.06
2023-10-13T18:24:23.510Z,100167.16
2023-10-13T18:27:25.589Z,100152.31
2023-10-13T18:30:27.790Z,100160.59
2023-10-13T18:33:29.673Z,100160.78
2023-10-13T18:36:32.063Z,100156.53
2023-10-13T18:39:35.523Z,100163.44
2023-10-13T18:42:39.675Z,100158.81
2023-10-13T18:45:42.109Z,100151.63
2023-10-13T18:48:45.772Z,100150.75
2023-10-13T18:51:47.995Z,100148.09
2023-10-13T18:54:52.598Z,100148.38
2023-10-13T18:57:55.094Z,100146.84
2023-10-13T19:00:58.036Z,100144.59
2023-10-13T19:04:01.914Z,100148.31
2023-10-13T19:07:06.118Z,100150.38
2023-10-13T19:10:10.580Z,100148.75
2023-10-13T19:13:13.229Z,100149.94
2023-10-13T19:16:16.402Z,100148.41
2023-10-13T19:19:18.999Z,100152.09
2023-10-13T19:22:21.471Z,100149.53
2023-10-13T19:25:25.100Z,100155.09
2023-10-13T19:28:28.714Z,100152.59
2023-10-13T19:31:31.464Z,100148.31
2023-10-13T19:34:33.728Z,100157.53
2023-10-13T19:37:37.146Z,100148.84
2023-10-13T19:40:41.804Z,100153.50
2023-10-13T19:43:45.418Z,100154.50
2023-10-13T19:46:48.112Z,100153.81
2023-10-13T19:49:51.168Z,100153.81
2023-10-13T19:52:53.589Z,100161.06
2023-10-13T19:55:59.072Z,100158.44
2023-10-13T19:59:01.705Z,100151.47
2023-10-13T20:02:04.022Z,100152.41
2023-10-13T20:05:06.892Z,100147.13
2023-10-13T20:08:09.557Z,100148.22
2023-10-13T20:11:13.325Z,100153.69
2023-10-13T20:14:15.378Z,100155.59
2023-10-13T20:17:17.631Z,100158.19
2023-10-13T20:20:19.593Z,100152.19
2023-10-13T20:23:21.513Z,100156.69
2023-10-13T20:26:25.353Z,100148.81
2023-10-13T20:29:27.314Z,100147.06
2023-10-13T20:32:29.218Z,100145.44
2023-10-13T20:35:31.174Z,100147.28
2023-10-13T20:38:33.059Z,100141.00
2023-10-13T20:41:36.142Z,100152.81
2023-10-13T20:44:37.813Z,100148.25
2023-10-13T20:47:39.554Z,100144.69
2023-10-13T20:50:41.245Z,100141.19
2023-10-13T20:53:44.364Z,100132.34
2023-10-13T20:56:47.437Z,100127.00
2023-10-13T20:59:49.887Z,100127.13
2023-10-13T21:02:51.803Z,100116.41
2023-10-13T21:05:55.535Z,100118.22
2023-10-13T21:08:57.338Z,100118.28
2023-10-13T21:12:00.381Z,100107.72
2023-10-13T21:15:02.023Z,100113.25
2023-10-13T21:18:03.879Z,100110.66
2023-10-13T21:21:06.697Z,100112.53
2023-10-13T21:24:09.175Z,100106.41
2023-10-13T21:27:12.219Z,100106.50
2023-10-13T21:30:14.278Z,100113.63
2023-10-13T21:33:15.936Z,100114.66
2023-10-13T21:36:17.767Z,100116.63
2023-10-13T21:39:21.183Z,100110.63
2023-10-13T21:42:27.005Z,100105.31
2023-10-13T21:45:28.858Z,100108.94
2023-10-13T21:48:30.579Z,100113.41
2023-10-13T21:51:33.214Z,100105.47
2023-10-13T21:54:34.960Z,100106.31
2023-10-13T21:57:38.105Z,100102.81
2023-10-13T22:00:39.857Z,100101.63
2023-10-13T22:03:41.822Z,100100.72
2023-10-13T22:06:43.675Z,100095.47
2023-10-13T22:09:45.436Z,100091.09
2023-10-13T22:12:49.937Z,100091.28
2023-10-13T22:15:51.678Z,100087.56
2023-10-13T22:18:53.445Z,100080.78
2023-10-13T22:21:55.208Z,100083.25
2023-10-13T22:24:56.964Z,100078.81
2023-10-13T22:28:00.171Z,100078.75
2023-10-13T22:31:01.939Z,100086.16
2023-10-13T22:34:03.964Z,100085.25
2023-10-13T22:37:06.417Z,100074.78
2023-10-13T22:40:09.536Z,100078.56
2023-10-13T22:43:12.603Z,100078.72
2023-10-13T22:46:14.361Z,100067.28
2023-10-13T22:49:16.213Z,100072.59
2023-10-13T22:52:17.975Z,100067.38
2023-10-13T22:55:19.611Z,100070.09
2023-10-13T22:58:22.722Z,100076.41
2023-10-13T23:01:24.394Z,100068.31
2023-10-13T23:04:26.393Z,100067.50
2023-10-13T23:07:28.234Z,100065.84
2023-10-13T23:10:29.942Z,100064.06
2023-10-13T23:13:33.021Z,100065.72
2023-10-13T23:16:34.745Z,100057.78
2023-10-13T23:19:36.848Z,100061.41
2023-10-13T23:22:38.595Z,100060.50
2023-10-13T23:25:40.741Z,100060.50
2023-10-13T23:28:43.922Z,100066.75
2023-10-13T23:31:45.684Z,100062.31
2023-10-13T23:34:47.390Z,100058.91
2023-10-13T23:37:49.103Z,100059.69
2023-10-13T23:40:50.764Z,100056.22
2023-10-13T23:43:54.122Z,100052.75
2023-10-13T23:46:55.860Z,100047.44
2023-10-13T23:49:57.613Z,100041.19
2023-10-13T23:52:59.325Z,100034.13
2023-10-13T23:56:02.121Z,100027.84
2023-10-13T23:59:05.235Z,100021.66
